createdAt,value
2022-08-31T00:01:37.800Z,4.53
2022-08-31T00:04:06.263Z,4.65
2022-08-31T00:06:35.927Z,4.65
2022-08-31T00:09:06.161Z,5.43
2022-08-31T00:11:36.268Z,4.20
2022-08-31T00:14:13.100Z,4.55
2022-08-31T00:16:44.737Z,4.22
2022-08-31T00:19:12.713Z,4.60
2022-08-31T00:21:40.936Z,5.75
2022-08-31T00:24:10.690Z,6.05
2022-08-31T00:26:38.514Z,5.13
2022-08-31T00:29:07.188Z,5.13
2022-08-31T00:31:35.090Z,5.93
2022-08-31T00:34:04.943Z,5.45
2022-08-31T00:36:33.829Z,5.60
2022-08-31T00:39:01.715Z,5.43
2022-08-31T00:41:31.610Z,5.75
2022-08-31T00:44:04.646Z,5.72
2022-08-31T00:46:37.332Z,5.15
2022-08-31T00:49:30.631Z,6.20
2022-08-31T00:52:13.091Z,6.13
2022-08-31T00:54:52.772Z,5.60
2022-08-31T00:57:24.684Z,5.60
2022-08-31T01:00:09.750Z,5.18
2022-08-31T01:02:38.240Z,5.75
2022-08-31T01:05:08.050Z,5.57
2022-08-31T01:07:37.336Z,5.38
2022-08-31T01:10:06.113Z,5.53
2022-08-31T01:12:33.912Z,6.45
2022-08-31T01:15:06.897Z,5.35
2022-08-31T01:17:36.447Z,5.57
2022-08-31T01:20:30.709Z,5.80
2022-08-31T01:23:12.897Z,5.53
2022-08-31T01:25:44.695Z,5.35
2022-08-31T01:28:13.179Z,5.30
2022-08-31T01:30:43.262Z,4.60
2022-08-31T01:33:13.326Z,4.78
2022-08-31T01:35:44.998Z,5.47
2022-08-31T01:38:13.313Z,5.30
2022-08-31T01:40:55.721Z,5.68
2022-08-31T01:43:25.211Z,5.53
2022-08-31T01:45:53.153Z,6.03
2022-08-31T01:48:23.322Z,5.05
2022-08-31T01:50:51.374Z,5.28
2022-08-31T01:53:19.495Z,5.38
2022-08-31T01:55:47.574Z,6.50
2022-08-31T01:58:15.697Z,4.88
2022-08-31T02:01:10.335Z,5.90
2022-08-31T02:03:52.700Z,6.28
2022-08-31T02:06:26.040Z,5.53
2022-08-31T02:08:53.954Z,5.00
2022-08-31T02:11:21.744Z,6.05
2022-08-31T02:13:49.564Z,4.80
2022-08-31T02:16:17.651Z,5.90
2022-08-31T02:18:45.501Z,6.03
2022-08-31T02:21:14.986Z,5.20
2022-08-31T02:23:42.841Z,6.45
2022-08-31T02:26:11.395Z,5.55
2022-08-31T02:28:39.385Z,5.03
2022-08-31T02:31:07.437Z,5.55
2022-08-31T02:33:45.323Z,5.47
2022-08-31T02:36:13.526Z,6.32
2022-08-31T02:38:42.141Z,5.75
2022-08-31T02:41:10.828Z,6.43
2022-08-31T02:43:41.076Z,5.68
2022-08-31T02:46:08.886Z,5.80
2022-08-31T02:48:42.641Z,5.57
2022-08-31T02:51:17.397Z,5.15
2022-08-31T02:53:47.910Z,5.28
2022-08-31T02:56:16.309Z,5.57
2022-08-31T02:58:44.147Z,5.57
2022-08-31T03:01:12.164Z,5.18
2022-08-31T03:03:40.798Z,5.88
2022-08-31T03:06:14.257Z,5.13
2022-08-31T03:08:42.326Z,5.63
2022-08-31T03:11:10.392Z,5.65
2022-08-31T03:13:41.268Z,5.50
2022-08-31T03:16:12.231Z,5.93
2022-08-31T03:18:40.159Z,5.28
2022-08-31T03:21:08.861Z,5.50
2022-08-31T03:23:37.839Z,5.30
2022-08-31T03:26:06.196Z,4.90
2022-08-31T03:28:38.257Z,6.60
2022-08-31T03:31:28.835Z,5.70
2022-08-31T03:33:57.636Z,5.88
2022-08-31T03:36:25.854Z,5.32
2022-08-31T03:38:55.163Z,5.45
2022-08-31T03:41:25.686Z,5.45
2022-08-31T03:43:54.688Z,5.60
2022-08-31T03:46:23.956Z,5.32
2022-08-31T03:48:52.080Z,5.82
2022-08-31T03:51:20.289Z,5.40
2022-08-31T03:53:48.577Z,5.40
2022-08-31T03:56:21.538Z,5.18
2022-08-31T03:58:51.425Z,5.20
2022-08-31T04:01:44.857Z,5.38
2022-08-31T04:04:31.769Z,5.60
2022-08-31T04:07:19.515Z,5.60
2022-08-31T04:10:07.077Z,5.78
2022-08-31T04:12:57.814Z,5.15
2022-08-31T04:15:50.151Z,5.57
2022-08-31T04:18:37.388Z,6.28
2022-08-31T04:21:14.879Z,5.75
2022-08-31T04:23:43.152Z,5.10
2022-08-31T04:26:30.773Z,6.03
2022-08-31T04:29:01.859Z,6.00
2022-08-31T04:31:30.679Z,6.82
2022-08-31T04:34:00.308Z,6.05
2022-08-31T04:36:29.156Z,5.75
2022-08-31T04:39:01.046Z,5.60
2022-08-31T04:41:32.495Z,5.70
2022-08-31T04:44:02.726Z,5.93
2022-08-31T04:46:35.985Z,6.00
2022-08-31T04:49:04.339Z,6.13
2022-08-31T04:51:35.988Z,6.20
2022-08-31T04:54:08.427Z,5.82
2022-08-31T04:56:43.334Z,6.22
2022-08-31T04:59:18.890Z,5.88
2022-08-31T05:02:06.425Z,6.03
2022-08-31T05:04:45.111Z,5.88
2022-08-31T05:07:12.880Z,6.13
2022-08-31T05:09:40.779Z,5.72
2022-08-31T05:12:08.673Z,5.47
2022-08-31T05:14:37.625Z,6.28
2022-08-31T05:17:16.097Z,5.32
2022-08-31T05:19:44.368Z,5.47
2022-08-31T05:22:15.067Z,6.35
2022-08-31T05:24:45.015Z,6.43
2022-08-31T05:27:13.884Z,6.20
2022-08-31T05:29:42.198Z,6.30
2022-08-31T05:32:30.239Z,6.32
2022-08-31T05:35:00.598Z,6.00
2022-08-31T05:37:28.465Z,6.20
2022-08-31T05:39:56.423Z,6.38
2022-08-31T05:42:25.280Z,6.20
2022-08-31T05:44:53.191Z,6.25
2022-08-31T05:47:20.940Z,6.80
2022-08-31T05:49:49.909Z,5.90
2022-08-31T05:52:24.729Z,7.05
2022-08-31T05:54:53.979Z,5.45
2022-08-31T05:57:26.384Z,5.68
2022-08-31T05:59:56.111Z,6.65
2022-08-31T06:02:27.568Z,6.93
2022-08-31T06:04:58.216Z,7.15
2022-08-31T06:07:26.615Z,6.85
2022-08-31T06:09:58.622Z,7.53
2022-08-31T06:12:26.547Z,7.43
2022-08-31T06:14:55.673Z,6.90
2022-08-31T06:17:24.483Z,6.50
2022-08-31T06:19:52.693Z,6.68
2022-08-31T06:22:20.898Z,6.60
2022-08-31T06:24:52.887Z,6.82
2022-08-31T06:27:20.837Z,6.97
2022-08-31T06:29:52.049Z,6.78
2022-08-31T06:32:20.357Z,6.60
2022-08-31T06:34:55.329Z,7.25
2022-08-31T06:37:43.001Z,7.70
2022-08-31T06:40:43.770Z,7.22
2022-08-31T06:43:47.768Z,7.27
2022-08-31T06:46:38.920Z,7.95
2022-08-31T06:49:26.811Z,7.28
2022-08-31T06:51:54.729Z,7.68
2022-08-31T06:54:30.601Z,7.95
2022-08-31T06:57:17.427Z,7.68
2022-08-31T07:00:00.336Z,8.43
2022-08-31T07:02:41.573Z,8.48
2022-08-31T07:05:15.047Z,7.93
2022-08-31T07:07:44.770Z,8.57
2022-08-31T07:10:13.154Z,8.05
2022-08-31T07:12:41.484Z,8.10
2022-08-31T07:15:11.502Z,8.63
2022-08-31T07:17:39.511Z,8.55
2022-08-31T07:20:09.643Z,8.82
2022-08-31T07:22:37.641Z,8.00
2022-08-31T07:25:22.456Z,7.70
2022-08-31T07:27:55.603Z,7.97
2022-08-31T07:32:56.449Z,7.32
2022-08-31T07:35:25.634Z,7.40
2022-08-31T07:38:24.055Z,8.13
2022-08-31T07:41:12.306Z,7.55
2022-08-31T07:43:41.895Z,7.45
2022-08-31T07:46:10.856Z,9.10
2022-08-31T07:48:39.008Z,7.68
2022-08-31T07:51:24.405Z,8.00
2022-08-31T07:54:08.621Z,8.73
2022-08-31T07:56:53.599Z,8.48
2022-08-31T07:59:23.564Z,8.82
2022-08-31T08:01:55.515Z,7.97
2022-08-31T08:04:25.864Z,7.18
2022-08-31T08:07:21.464Z,7.70
2022-08-31T08:10:14.262Z,7.13
2022-08-31T08:12:57.291Z,7.55
2022-08-31T08:15:53.223Z,6.45
2022-08-31T08:18:29.325Z,7.20
2022-08-31T08:21:01.001Z,7.00
2022-08-31T08:23:30.419Z,6.10
2022-08-31T08:26:35.025Z,7.28
2022-08-31T08:29:08.910Z,6.45
2022-08-31T08:31:44.422Z,5.90
2022-08-31T08:34:12.869Z,5.65
2022-08-31T08:36:40.925Z,7.30
2022-08-31T08:39:13.116Z,6.80
2022-08-31T08:41:47.760Z,6.93
2022-08-31T08:44:18.344Z,6.15
2022-08-31T08:47:06.205Z,6.55
2022-08-31T08:49:54.550Z,5.57
2022-08-31T08:52:29.854Z,6.70
2022-08-31T08:55:09.054Z,6.75
2022-08-31T08:57:42.718Z,6.35
2022-08-31T09:00:19.845Z,6.10
2022-08-31T09:03:39.298Z,6.35
2022-08-31T09:06:54.803Z,6.78
2022-08-31T09:10:01.394Z,6.78
2022-08-31T09:13:03.247Z,6.47
2022-08-31T09:15:53.792Z,6.03
2022-08-31T09:19:06.590Z,6.05
2022-08-31T09:21:55.379Z,7.03
2022-08-31T09:24:30.274Z,6.85
2022-08-31T09:27:50.943Z,5.70
2022-08-31T09:30:52.346Z,6.43
2022-08-31T09:33:31.467Z,6.45
2022-08-31T09:36:22.599Z,6.25
2022-08-31T09:38:51.872Z,6.68
2022-08-31T09:41:38.366Z,6.15
2022-08-31T09:44:35.275Z,6.15
2022-08-31T09:47:14.950Z,6.20
2022-08-31T09:49:55.919Z,7.50
2022-08-31T09:52:49.555Z,6.35
2022-08-31T09:55:25.517Z,6.57
2022-08-31T09:58:04.364Z,5.88
2022-08-31T10:00:41.506Z,5.82
2022-08-31T10:03:21.868Z,7.18
2022-08-31T10:05:52.327Z,6.28
2022-08-31T10:08:57.990Z,6.25
2022-08-31T10:11:32.701Z,5.75
2022-08-31T10:14:50.568Z,6.10
2022-08-31T10:17:47.201Z,6.28
2022-08-31T10:20:31.672Z,6.65
2022-08-31T10:23:26.938Z,6.47
2022-08-31T10:26:10.791Z,6.13
2022-08-31T10:28:55.688Z,6.60
2022-08-31T10:31:44.109Z,6.53
2022-08-31T10:34:50.357Z,6.07
2022-08-31T10:37:49.690Z,6.47
2022-08-31T10:40:32.246Z,6.50
2022-08-31T10:43:21.982Z,6.60
2022-08-31T10:45:54.034Z,6.28
2022-08-31T10:48:26.200Z,6.10
2022-08-31T10:51:19.433Z,6.78
2022-08-31T10:54:31.045Z,6.43
2022-08-31T10:57:31.543Z,6.68
2022-08-31T11:00:08.934Z,6.18
2022-08-31T11:03:13.311Z,7.43
2022-08-31T11:06:04.016Z,6.25
2022-08-31T11:09:15.554Z,6.72
2022-08-31T11:12:07.489Z,6.45
2022-08-31T11:15:08.896Z,7.18
2022-08-31T11:18:10.693Z,6.55
2022-08-31T11:20:39.994Z,5.78
2022-08-31T11:23:13.409Z,6.30
2022-08-31T11:29:13.370Z,7.07
2022-08-31T11:31:42.851Z,7.35
2022-08-31T11:34:27.276Z,6.88
2022-08-31T11:37:02.304Z,6.55
2022-08-31T11:39:40.305Z,7.05
2022-08-31T11:42:39.703Z,6.85
2022-08-31T11:45:31.084Z,7.32
2022-08-31T11:48:00.622Z,6.75
2022-08-31T11:50:56.030Z,7.47
2022-08-31T11:53:44.435Z,7.65
2022-08-31T11:56:15.239Z,5.88
2022-08-31T11:58:48.190Z,6.55
2022-08-31T12:01:34.059Z,6.47
2022-08-31T12:04:03.863Z,8.25
2022-08-31T12:06:33.727Z,6.82
2022-08-31T12:09:25.705Z,7.05
2022-08-31T12:12:27.842Z,7.43
2022-08-31T12:15:18.491Z,6.95
2022-08-31T12:18:30.191Z,6.43
2022-08-31T12:22:09.322Z,6.80
2022-08-31T12:24:43.814Z,7.32
2022-08-31T12:27:35.625Z,6.57
2022-08-31T12:30:26.148Z,6.75
2022-08-31T12:33:23.483Z,6.45
2022-08-31T12:36:11.159Z,6.47
2022-08-31T12:38:38.916Z,7.20
2022-08-31T12:41:11.726Z,6.60
2022-08-31T12:43:46.129Z,7.30
2022-08-31T12:46:32.054Z,6.65
2022-08-31T12:49:24.757Z,6.75
2022-08-31T12:52:02.110Z,6.82
2022-08-31T12:54:41.802Z,7.05
2022-08-31T12:57:47.171Z,6.75
2022-08-31T13:00:39.512Z,6.30
2022-08-31T13:03:29.255Z,7.72
2022-08-31T13:06:09.648Z,6.28
2022-08-31T13:08:47.946Z,7.22
2022-08-31T13:11:35.350Z,6.22
2022-08-31T13:14:20.971Z,5.82
2022-08-31T13:17:22.072Z,6.68
2022-08-31T13:19:58.780Z,6.43
2022-08-31T13:22:41.436Z,7.43
2022-08-31T13:25:25.704Z,6.35
2022-08-31T13:27:53.519Z,6.05
2022-08-31T13:30:25.470Z,5.88
2022-08-31T13:32:54.742Z,5.97
2022-08-31T13:35:35.696Z,6.05
2022-08-31T13:38:05.403Z,6.68
2022-08-31T13:40:39.729Z,5.75
2022-08-31T13:43:10.723Z,5.43
2022-08-31T13:45:55.508Z,5.40
2022-08-31T13:48:41.648Z,5.47
2022-08-31T13:51:19.588Z,6.47
2022-08-31T13:54:09.904Z,6.40
2022-08-31T13:56:55.108Z,6.35
2022-08-31T13:59:26.526Z,6.28
2022-08-31T14:02:19.551Z,6.10
2022-08-31T14:04:57.402Z,7.13
2022-08-31T14:07:39.031Z,6.32
2022-08-31T14:10:22.529Z,6.18
2022-08-31T14:15:56.333Z,7.88
2022-08-31T14:18:43.045Z,7.65
2022-08-31T14:21:26.637Z,7.45
2022-08-31T14:24:04.110Z,8.05
2022-08-31T14:26:41.497Z,7.32
2022-08-31T14:29:16.761Z,7.03
2022-08-31T14:31:53.072Z,7.93
2022-08-31T14:34:29.775Z,7.22
2022-08-31T14:37:28.781Z,7.05
2022-08-31T14:40:06.973Z,6.72
2022-08-31T14:42:39.490Z,6.25
2022-08-31T14:45:18.576Z,6.18
2022-08-31T14:47:52.263Z,6.38
2022-08-31T14:50:25.446Z,6.75
2022-08-31T14:52:55.307Z,5.60
2022-08-31T14:55:27.001Z,6.10
2022-08-31T14:58:10.002Z,6.53
2022-08-31T15:00:49.888Z,6.40
2022-08-31T15:03:24.383Z,6.57
2022-08-31T15:05:52.301Z,5.78
2022-08-31T15:08:22.859Z,5.50
2022-08-31T15:10:58.045Z,6.43
2022-08-31T15:13:29.224Z,6.40
2022-08-31T15:16:05.048Z,5.85
2022-08-31T15:18:34.887Z,6.35
2022-08-31T15:21:05.872Z,6.60
2022-08-31T15:23:34.159Z,5.78
2022-08-31T15:26:06.638Z,6.65
2022-08-31T15:28:40.856Z,7.35
2022-08-31T15:31:29.046Z,6.97
2022-08-31T15:34:00.368Z,6.22
2022-08-31T15:36:28.407Z,8.10
2022-08-31T15:38:58.968Z,7.22
2022-08-31T15:41:31.783Z,6.47
2022-08-31T15:43:59.565Z,7.57
2022-08-31T15:46:46.175Z,8.00
2022-08-31T15:49:14.242Z,7.85
2022-08-31T15:51:50.326Z,7.65
2022-08-31T15:54:22.724Z,6.88
2022-08-31T15:56:55.062Z,6.97
2022-08-31T15:59:22.988Z,7.60
2022-08-31T16:01:53.026Z,7.88
2022-08-31T16:04:23.778Z,6.82
2022-08-31T16:06:55.485Z,6.57
2022-08-31T16:09:23.441Z,7.72
2022-08-31T16:11:52.482Z,5.68
2022-08-31T16:14:20.605Z,6.38
2022-08-31T16:16:50.529Z,6.45
2022-08-31T16:19:34.463Z,7.05
2022-08-31T16:22:06.060Z,6.65
2022-08-31T16:24:39.011Z,7.78
2022-08-31T16:27:11.969Z,7.18
2022-08-31T16:29:41.246Z,7.80
2022-08-31T16:32:09.577Z,7.35
2022-08-31T16:34:39.540Z,7.53
2022-08-31T16:37:08.655Z,8.27
2022-08-31T16:39:47.082Z,8.32
2022-08-31T16:42:15.948Z,7.90
2022-08-31T16:44:46.879Z,8.23
2022-08-31T16:47:18.870Z,9.13
2022-08-31T16:49:47.500Z,8.98
2022-08-31T16:52:21.680Z,9.60
2022-08-31T16:54:51.745Z,9.73
2022-08-31T16:57:26.286Z,8.70
2022-08-31T16:59:57.032Z,10.07
2022-08-31T17:02:25.713Z,9.30
2022-08-31T17:04:54.543Z,9.15
2022-08-31T17:07:24.517Z,9.50
2022-08-31T17:10:01.943Z,10.43
2022-08-31T17:12:32.404Z,9.68
2022-08-31T17:15:00.526Z,9.50
2022-08-31T17:17:28.448Z,9.20
2022-08-31T17:19:56.345Z,8.60
2022-08-31T17:22:31.635Z,8.90
2022-08-31T17:25:04.367Z,9.93
2022-08-31T17:27:34.723Z,10.18
2022-08-31T17:30:06.417Z,8.90
2022-08-31T17:32:44.663Z,9.75
2022-08-31T17:35:19.226Z,10.07
2022-08-31T17:37:50.888Z,9.13
2022-08-31T17:40:19.414Z,9.88
2022-08-31T17:42:48.496Z,11.27
2022-08-31T17:45:17.746Z,9.95
2022-08-31T17:47:45.636Z,10.30
2022-08-31T17:50:17.304Z,10.15
2022-08-31T17:52:47.397Z,10.05
2022-08-31T17:55:15.492Z,9.30
2022-08-31T17:57:44.507Z,10.63
2022-08-31T18:00:14.907Z,10.38
2022-08-31T18:02:43.581Z,9.90
2022-08-31T18:05:17.311Z,9.48
2022-08-31T18:07:46.066Z,9.80
2022-08-31T18:10:14.872Z,10.23
2022-08-31T18:12:43.210Z,9.93
2022-08-31T18:15:13.028Z,11.15
2022-08-31T18:17:40.904Z,11.43
2022-08-31T18:20:09.692Z,11.90
2022-08-31T18:22:37.555Z,11.32
2022-08-31T18:25:06.065Z,12.40
2022-08-31T18:27:33.896Z,11.60
2022-08-31T18:30:01.747Z,10.55
2022-08-31T18:32:33.123Z,11.32
2022-08-31T18:35:01.061Z,11.65
2022-08-31T18:37:29.298Z,10.75
2022-08-31T18:40:16.753Z,11.88
2022-08-31T18:43:03.322Z,11.75
2022-08-31T18:45:31.185Z,12.65
2022-08-31T18:50:50.112Z,13.02
2022-08-31T18:53:28.732Z,12.98
2022-08-31T18:56:11.591Z,14.90
2022-08-31T18:58:40.175Z,15.18
2022-08-31T19:01:11.666Z,13.63
2022-08-31T19:03:41.177Z,15.18
2022-08-31T19:06:17.456Z,15.48
2022-08-31T19:08:45.984Z,15.80
2022-08-31T19:11:14.367Z,14.98
2022-08-31T19:13:42.881Z,17.50
2022-08-31T19:16:21.594Z,15.80
2022-08-31T19:18:51.180Z,16.33
2022-08-31T19:21:29.617Z,15.65
2022-08-31T19:24:00.340Z,16.90
2022-08-31T19:26:44.521Z,16.85
2022-08-31T19:29:15.785Z,17.95
2022-08-31T19:31:49.223Z,16.35
2022-08-31T19:36:53.904Z,17.50
2022-08-31T19:39:26.008Z,17.27
2022-08-31T19:42:00.109Z,17.77
2022-08-31T19:44:28.251Z,17.08
2022-08-31T19:46:59.303Z,16.75
2022-08-31T19:49:31.072Z,16.05
2022-08-31T19:52:03.554Z,16.40
2022-08-31T19:54:37.442Z,17.63
2022-08-31T19:57:09.873Z,17.45
2022-08-31T19:59:38.568Z,17.88
2022-08-31T20:02:09.022Z,16.92
2022-08-31T20:04:37.061Z,16.13
2022-08-31T20:07:06.503Z,18.77
2022-08-31T20:09:35.398Z,21.33
2022-08-31T20:12:04.535Z,19.15
2022-08-31T20:14:32.497Z,19.02
2022-08-31T20:17:00.521Z,19.30
2022-08-31T20:19:31.482Z,19.25
2022-08-31T20:22:08.162Z,18.92
2022-08-31T20:27:13.176Z,19.45
2022-08-31T20:29:41.001Z,19.38
2022-08-31T20:32:09.301Z,20.02
2022-08-31T20:34:38.613Z,20.02
2022-08-31T20:37:07.152Z,21.10
2022-08-31T20:39:35.631Z,18.35
2022-08-31T20:42:06.401Z,17.63
2022-08-31T20:44:37.236Z,18.88
2022-08-31T20:47:29.196Z,18.13
2022-08-31T20:50:00.945Z,17.85
2022-08-31T20:52:35.205Z,15.93
2022-08-31T20:55:06.156Z,14.82
2022-08-31T20:57:38.960Z,15.93
2022-08-31T21:00:10.517Z,14.27
2022-08-31T21:02:39.918Z,13.35
2022-08-31T21:07:59.617Z,12.25
2022-08-31T21:10:37.441Z,12.40
2022-08-31T21:13:12.591Z,10.70
2022-08-31T21:15:44.140Z,11.90
2022-08-31T21:18:15.896Z,11.57
2022-08-31T21:20:46.265Z,10.45
2022-08-31T21:23:14.137Z,10.82
2022-08-31T21:25:46.634Z,11.77
2022-08-31T21:28:17.829Z,10.05
2022-08-31T21:30:49.535Z,10.15
2022-08-31T21:33:18.258Z,9.63
2022-08-31T21:35:46.264Z,9.60
2022-08-31T21:38:14.037Z,9.18
2022-08-31T21:40:49.759Z,8.82
2022-08-31T21:43:18.411Z,9.80
2022-08-31T21:45:46.417Z,8.23
2022-08-31T21:48:14.250Z,8.90
2022-08-31T21:50:42.066Z,8.35
2022-08-31T21:53:09.812Z,8.77
2022-08-31T21:55:38.929Z,8.63
2022-08-31T21:58:06.773Z,7.45
2022-08-31T22:00:41.867Z,8.15
2022-08-31T22:03:10.460Z,7.18
2022-08-31T22:05:41.787Z,6.70
2022-08-31T22:08:09.965Z,7.35
2022-08-31T22:10:44.242Z,7.00
2022-08-31T22:13:12.986Z,7.78
2022-08-31T22:15:42.315Z,7.68
2022-08-31T22:18:58.098Z,7.72
2022-08-31T22:20:59.566Z,7.18
2022-08-31T22:23:27.383Z,7.38
2022-08-31T22:25:55.240Z,7.57
2022-08-31T22:28:25.117Z,5.93
2022-08-31T22:30:53.438Z,6.60
2022-08-31T22:33:21.279Z,7.13
2022-08-31T22:35:49.096Z,6.82
2022-08-31T22:38:19.119Z,6.70
2022-08-31T22:40:50.252Z,7.55
2022-08-31T22:43:19.296Z,6.32
2022-08-31T22:45:48.895Z,6.75
2022-08-31T22:48:17.337Z,7.15
2022-08-31T22:50:45.401Z,6.78
2022-08-31T22:53:13.264Z,7.30
2022-08-31T22:55:43.114Z,7.32
2022-08-31T22:58:12.634Z,7.80
2022-08-31T23:00:42.149Z,8.20
2022-08-31T23:03:14.090Z,7.32
2022-08-31T23:05:43.826Z,6.95
2022-08-31T23:08:13.872Z,7.97
2022-08-31T23:10:42.135Z,7.85
2022-08-31T23:13:10.059Z,7.75
2022-08-31T23:15:38.420Z,7.82
2022-08-31T23:18:10.522Z,8.10
2022-08-31T23:20:39.141Z,8.00
2022-08-31T23:23:07.028Z,7.90
2022-08-31T23:25:35.490Z,7.72
2022-08-31T23:28:03.629Z,8.13
2022-08-31T23:30:31.456Z,7.85
2022-08-31T23:33:02.235Z,8.52
2022-08-31T23:35:30.069Z,8.70
2022-08-31T23:38:00.607Z,9.75
2022-08-31T23:40:30.997Z,9.30
2022-08-31T23:42:58.840Z,10.68
2022-08-31T23:45:26.626Z,10.85
2022-08-31T23:47:55.008Z,11.35
2022-08-31T23:50:22.778Z,11.98
2022-08-31T23:52:52.213Z,12.50
2022-08-31T23:55:22.274Z,12.77
2022-08-31T23:57:50.163Z,12.52
